createdAt,value
2019-03-22T00:00:16.326Z,45.17
2019-03-22T00:02:44.788Z,50.38
2019-03-22T00:05:13.214Z,48.83
2019-03-22T00:07:41.643Z,51.33
2019-03-22T00:10:10.147Z,50.78
2019-03-22T00:12:41.572Z,47.70
2019-03-22T00:15:10.773Z,47.60
2019-03-22T00:17:39.225Z,49.15
2019-03-22T00:20:08.808Z,50.55
2019-03-22T00:22:37.281Z,51.70
2019-03-22T00:25:06.374Z,49.83
2019-03-22T00:27:34.843Z,51.73
2019-03-22T00:30:04.873Z,42.60
2019-03-22T00:32:33.341Z,43.25
2019-03-22T00:35:01.803Z,47.33
2019-03-22T00:37:30.278Z,46.92
2019-03-22T00:39:58.748Z,45.58
2019-03-22T00:42:27.200Z,45.20
2019-03-22T00:44:55.644Z,46.15
2019-03-22T00:47:24.069Z,44.65
2019-03-22T00:49:52.582Z,43.68
2019-03-22T00:52:22.269Z,44.38
2019-03-22T00:54:50.722Z,44.10
2019-03-22T00:57:27.945Z,45.05
2019-03-22T00:59:49.306Z,45.33
2019-03-22T01:02:17.820Z,44.60
2019-03-22T01:04:46.263Z,43.35
2019-03-22T01:07:14.750Z,44.08
2019-03-22T01:09:44.377Z,44.45
2019-03-22T01:12:12.898Z,43.50
2019-03-22T01:14:41.349Z,45.98
2019-03-22T01:17:10.426Z,46.83
2019-03-22T01:19:38.869Z,46.42
2019-03-22T01:22:07.324Z,47.65
2019-03-22T01:24:35.762Z,48.78
2019-03-22T01:27:04.214Z,45.67
2019-03-22T01:29:32.663Z,46.80
2019-03-22T01:32:01.098Z,45.80
2019-03-22T01:34:31.488Z,49.75
2019-03-22T01:36:59.922Z,47.90
2019-03-22T01:39:28.376Z,48.48
2019-03-22T01:41:56.845Z,49.23
2019-03-22T01:44:25.290Z,47.17
2019-03-22T01:46:53.740Z,49.27
2019-03-22T01:49:24.241Z,49.20
2019-03-22T01:51:52.675Z,47.90
2019-03-22T01:54:21.113Z,47.83
2019-03-22T01:56:49.562Z,50.12
2019-03-22T01:59:17.990Z,50.35
2019-03-22T02:01:46.448Z,49.85
2019-03-22T02:04:14.877Z,48.33
2019-03-22T02:06:43.322Z,49.75
2019-03-22T02:09:11.776Z,48.48
2019-03-22T02:11:40.202Z,49.65
2019-03-22T02:14:08.715Z,48.95
2019-03-22T02:16:37.290Z,49.65
2019-03-22T02:19:05.730Z,50.83
2019-03-22T02:21:35.027Z,51.85
2019-03-22T02:24:03.469Z,51.20
2019-03-22T02:26:31.903Z,52.00
2019-03-22T02:29:00.361Z,50.30
2019-03-22T02:31:28.951Z,52.23
2019-03-22T02:33:57.448Z,54.60
2019-03-22T02:36:25.910Z,54.80
2019-03-22T02:38:54.357Z,55.17
2019-03-22T02:41:22.871Z,57.25
2019-03-22T02:43:54.437Z,55.15
2019-03-22T02:46:21.499Z,53.20
2019-03-22T02:49:00.047Z,56.55
2019-03-22T02:51:28.509Z,54.35
2019-03-22T02:53:56.977Z,54.95
2019-03-22T02:56:25.407Z,55.15
2019-03-22T02:58:53.840Z,51.42
2019-03-22T03:01:22.339Z,53.68
2019-03-22T03:03:50.792Z,52.48
2019-03-22T03:06:20.579Z,55.45
2019-03-22T03:08:49.026Z,53.65
2019-03-22T03:11:17.473Z,52.67
2019-03-22T03:13:45.914Z,52.83
2019-03-22T03:16:14.389Z,53.78
2019-03-22T03:18:42.920Z,53.02
2019-03-22T03:21:11.365Z,52.13
2019-03-22T03:23:39.821Z,52.48
2019-03-22T03:26:08.268Z,51.80
2019-03-22T03:28:37.704Z,52.58
2019-03-22T03:31:06.382Z,53.38
2019-03-22T03:33:34.895Z,53.28
2019-03-22T03:36:03.342Z,51.02
2019-03-22T03:38:31.887Z,49.80
2019-03-22T03:41:00.698Z,52.17
2019-03-22T03:43:29.278Z,50.95
2019-03-22T03:45:58.774Z,51.65
2019-03-22T03:48:27.248Z,51.53
2019-03-22T03:50:55.672Z,49.42
2019-03-22T03:53:24.116Z,50.25
2019-03-22T03:55:52.563Z,49.73
2019-03-22T03:58:20.988Z,48.05
2019-03-22T04:00:49.483Z,50.83
2019-03-22T04:03:17.989Z,48.50
2019-03-22T04:05:47.413Z,50.03
2019-03-22T04:08:15.860Z,50.80
2019-03-22T04:10:44.359Z,52.40
2019-03-22T04:13:12.829Z,51.10
2019-03-22T04:15:43.190Z,52.95
2019-03-22T04:18:11.639Z,52.10
2019-03-22T04:20:40.102Z,48.15
2019-03-22T04:23:08.555Z,47.43
2019-03-22T04:25:38.192Z,50.52
2019-03-22T04:28:06.647Z,49.73
2019-03-22T04:30:35.121Z,50.00
2019-03-22T04:33:06.394Z,48.13
2019-03-22T04:35:33.873Z,48.25
2019-03-22T04:38:02.389Z,49.88
2019-03-22T04:40:30.962Z,47.95
2019-03-22T04:42:59.417Z,46.37
2019-03-22T04:45:30.913Z,47.55
2019-03-22T04:48:08.122Z,48.78
2019-03-22T04:50:39.639Z,49.63
2019-03-22T04:53:11.008Z,52.05
2019-03-22T04:55:41.462Z,50.20
2019-03-22T04:58:11.674Z,50.60
2019-03-22T05:00:40.950Z,49.00
2019-03-22T05:03:10.649Z,47.70
2019-03-22T05:05:39.414Z,49.98
2019-03-22T05:08:08.554Z,50.08
2019-03-22T05:10:38.323Z,49.75
2019-03-22T05:13:10.011Z,48.85
2019-03-22T05:15:39.038Z,48.10
2019-03-22T05:18:07.924Z,49.73
2019-03-22T05:20:37.817Z,50.65
2019-03-22T05:23:08.547Z,48.20
2019-03-22T05:25:37.730Z,48.10
2019-03-22T05:28:08.127Z,45.75
2019-03-22T05:30:51.455Z,53.23
2019-03-22T05:33:19.913Z,50.20
2019-03-22T05:35:48.479Z,51.35
2019-03-22T05:38:16.963Z,50.30
2019-03-22T05:40:45.394Z,54.08
2019-03-22T05:43:13.868Z,51.65
2019-03-22T05:45:42.386Z,51.70
2019-03-22T05:48:10.829Z,48.17
2019-03-22T05:50:39.284Z,51.23
2019-03-22T05:53:07.702Z,47.27
2019-03-22T05:55:36.145Z,50.25
2019-03-22T05:58:04.652Z,49.83
2019-03-22T06:00:33.098Z,51.25
2019-03-22T06:03:01.522Z,51.48
2019-03-22T06:05:29.979Z,53.92
2019-03-22T06:07:58.410Z,48.90
2019-03-22T06:10:26.873Z,52.95
2019-03-22T06:12:55.328Z,48.45
2019-03-22T06:15:23.783Z,49.53
2019-03-22T06:17:52.375Z,50.80
2019-03-22T06:20:20.804Z,49.08
2019-03-22T06:22:49.270Z,53.73
2019-03-22T06:25:17.731Z,50.90
2019-03-22T06:27:46.260Z,55.38
2019-03-22T06:30:14.787Z,52.00
2019-03-22T06:32:43.252Z,54.77
2019-03-22T06:35:11.698Z,53.23
2019-03-22T06:37:40.165Z,55.48
2019-03-22T06:40:08.753Z,53.55
2019-03-22T06:42:37.215Z,55.48
2019-03-22T06:45:07.419Z,54.93
2019-03-22T06:47:35.858Z,52.17
2019-03-22T06:50:08.503Z,56.92
2019-03-22T06:52:37.049Z,55.15
2019-03-22T06:55:07.084Z,57.93
2019-03-22T06:57:35.529Z,53.00
2019-03-22T07:00:09.487Z,54.40
2019-03-22T07:02:38.082Z,57.53
2019-03-22T07:05:06.966Z,55.33
2019-03-22T07:07:35.393Z,54.70
2019-03-22T07:10:05.801Z,57.17
2019-03-22T07:12:34.245Z,57.88
2019-03-22T07:15:02.710Z,55.88
2019-03-22T07:17:31.164Z,59.27
2019-03-22T07:19:59.607Z,56.05
2019-03-22T07:22:28.041Z,53.98
2019-03-22T07:24:56.482Z,53.83
2019-03-22T07:27:24.919Z,55.85
2019-03-22T07:29:53.381Z,55.65
2019-03-22T07:32:21.826Z,58.28
2019-03-22T07:34:50.272Z,53.85
2019-03-22T07:37:18.771Z,56.88
2019-03-22T07:39:47.216Z,59.73
2019-03-22T07:42:17.584Z,65.22
2019-03-22T07:44:45.911Z,60.30
2019-03-22T07:47:14.354Z,57.88
2019-03-22T07:49:42.793Z,57.27
2019-03-22T07:52:11.243Z,62.05
2019-03-22T07:54:39.743Z,58.42
2019-03-22T07:57:08.183Z,57.43
2019-03-22T07:59:36.639Z,58.65
2019-03-22T08:02:05.236Z,57.98
2019-03-22T08:04:33.684Z,58.68
2019-03-22T08:07:02.130Z,56.75
2019-03-22T08:09:30.563Z,53.80
2019-03-22T08:11:59.598Z,60.33
2019-03-22T08:14:28.069Z,62.98
2019-03-22T08:16:56.560Z,62.55
2019-03-22T08:19:25.012Z,59.25
2019-03-22T08:21:53.435Z,59.67
2019-03-22T08:24:21.877Z,55.43
2019-03-22T08:26:50.341Z,61.65
2019-03-22T08:29:18.854Z,58.92
2019-03-22T08:31:47.385Z,56.53
2019-03-22T08:34:15.900Z,57.95
2019-03-22T08:36:44.352Z,58.92
2019-03-22T08:39:12.835Z,58.17
2019-03-22T08:41:41.348Z,61.18
2019-03-22T08:44:09.788Z,59.88
2019-03-22T08:46:38.254Z,66.15
2019-03-22T08:49:09.340Z,59.90
2019-03-22T08:51:36.959Z,60.90
2019-03-22T08:54:05.554Z,58.38
2019-03-22T08:56:36.025Z,57.45
2019-03-22T08:59:04.581Z,60.05
2019-03-22T09:01:33.065Z,60.55
2019-03-22T09:04:01.551Z,57.20
2019-03-22T09:06:30.068Z,62.05
2019-03-22T09:08:58.630Z,63.45
2019-03-22T09:11:27.133Z,58.28
2019-03-22T09:13:55.608Z,59.90
2019-03-22T09:16:24.150Z,56.98
2019-03-22T09:18:52.634Z,56.50
2019-03-22T09:21:21.092Z,57.15
2019-03-22T09:23:49.556Z,59.55
2019-03-22T09:26:19.971Z,59.03
2019-03-22T09:28:48.301Z,58.50
2019-03-22T09:31:16.819Z,57.88
2019-03-22T09:33:45.301Z,57.03
2019-03-22T09:36:13.761Z,60.60
2019-03-22T09:38:42.246Z,59.80
2019-03-22T09:41:10.737Z,58.02
2019-03-22T09:43:39.178Z,59.18
2019-03-22T09:46:07.640Z,62.90
2019-03-22T09:48:36.146Z,60.63
2019-03-22T09:51:04.706Z,62.43
2019-03-22T09:53:33.221Z,60.12
2019-03-22T09:56:01.770Z,58.02
2019-03-22T09:58:30.355Z,59.83
2019-03-22T10:00:58.917Z,57.95
2019-03-22T10:03:27.413Z,57.75
2019-03-22T10:05:55.926Z,59.95
2019-03-22T10:08:24.384Z,54.73
2019-03-22T10:10:52.876Z,59.67
2019-03-22T10:13:21.359Z,56.23
2019-03-22T10:15:49.971Z,59.38
2019-03-22T10:18:18.435Z,58.10
2019-03-22T10:20:46.894Z,58.38
2019-03-22T10:23:15.431Z,55.73
2019-03-22T10:25:43.911Z,56.48
2019-03-22T10:28:12.440Z,55.80
2019-03-22T10:30:40.942Z,53.63
2019-03-22T10:33:21.823Z,54.95
2019-03-22T10:35:39.588Z,55.67
2019-03-22T10:38:15.949Z,59.90
2019-03-22T10:40:38.344Z,60.15
2019-03-22T10:43:06.804Z,61.45
2019-03-22T10:45:35.361Z,60.45
2019-03-22T10:48:03.983Z,61.35
2019-03-22T10:50:32.444Z,60.60
2019-03-22T10:53:00.942Z,60.43
2019-03-22T10:55:30.668Z,60.70
2019-03-22T10:57:59.525Z,60.15
2019-03-22T11:00:28.060Z,60.83
2019-03-22T11:02:56.495Z,60.15
2019-03-22T11:05:25.064Z,59.77
2019-03-22T11:07:53.527Z,60.25
2019-03-22T11:10:21.971Z,63.15
2019-03-22T11:12:50.501Z,60.43
2019-03-22T11:15:18.939Z,61.80
2019-03-22T11:17:47.387Z,61.42
2019-03-22T11:20:17.154Z,62.60
2019-03-22T11:22:45.597Z,59.85
2019-03-22T11:25:14.174Z,61.05
2019-03-22T11:27:42.619Z,62.70
2019-03-22T11:30:16.805Z,63.10
2019-03-22T11:32:45.549Z,58.38
2019-03-22T11:35:14.437Z,58.78
2019-03-22T11:37:42.877Z,63.48
2019-03-22T11:40:16.012Z,61.23
2019-03-22T11:42:44.614Z,58.58
2019-03-22T11:45:16.393Z,62.15
2019-03-22T11:47:44.826Z,61.00
2019-03-22T11:50:13.632Z,59.55
2019-03-22T11:52:42.082Z,61.83
2019-03-22T11:55:12.599Z,62.75
2019-03-22T11:57:41.117Z,61.08
2019-03-22T12:00:15.765Z,60.92
2019-03-22T12:02:44.187Z,60.08
2019-03-22T12:05:14.083Z,59.00
2019-03-22T12:07:42.659Z,58.92
2019-03-22T12:10:13.675Z,58.68
2019-03-22T12:12:42.190Z,59.38
2019-03-22T12:15:13.178Z,58.75
2019-03-22T12:17:41.746Z,60.25
2019-03-22T12:20:13.412Z,59.60
2019-03-22T12:22:41.858Z,57.35
2019-03-22T12:25:13.044Z,56.88
2019-03-22T12:27:41.492Z,59.63
2019-03-22T12:30:12.703Z,60.10
2019-03-22T12:32:41.190Z,61.48
2019-03-22T12:35:10.638Z,60.65
2019-03-22T12:37:39.490Z,60.45
2019-03-22T12:40:14.199Z,58.45
2019-03-22T12:42:42.626Z,58.95
2019-03-22T12:45:14.173Z,59.42
2019-03-22T12:47:42.697Z,60.08
2019-03-22T12:50:13.780Z,56.20
2019-03-22T12:52:42.241Z,57.17
2019-03-22T12:55:11.810Z,56.30
2019-03-22T12:57:40.271Z,58.90
2019-03-22T13:00:11.810Z,57.17
2019-03-22T13:02:42.452Z,56.60
2019-03-22T13:05:11.377Z,55.83
2019-03-22T13:07:39.809Z,55.28
2019-03-22T13:10:10.792Z,55.38
2019-03-22T13:12:39.246Z,54.10
2019-03-22T13:15:08.530Z,55.33
2019-03-22T13:17:36.972Z,54.67
2019-03-22T13:20:11.343Z,51.58
2019-03-22T13:22:39.790Z,51.98
2019-03-22T13:25:10.558Z,50.23
2019-03-22T13:27:39.072Z,51.60
2019-03-22T13:30:28.828Z,53.30
2019-03-22T13:32:58.493Z,55.90
2019-03-22T13:35:26.998Z,53.80
2019-03-22T13:37:55.451Z,50.95
2019-03-22T13:40:23.954Z,50.43
2019-03-22T13:42:52.406Z,54.13
2019-03-22T13:45:20.916Z,51.50
2019-03-22T13:47:49.346Z,51.65
2019-03-22T13:50:17.952Z,52.20
2019-03-22T13:52:46.451Z,50.43
2019-03-22T13:55:14.996Z,49.95
2019-03-22T13:57:43.419Z,52.48
2019-03-22T14:00:17.366Z,52.80
2019-03-22T14:02:45.828Z,56.15
2019-03-22T14:05:14.425Z,50.83
2019-03-22T14:07:42.871Z,49.98
2019-03-22T14:10:19.956Z,49.35
2019-03-22T14:12:48.406Z,49.18
2019-03-22T14:15:16.853Z,50.15
2019-03-22T14:17:45.307Z,49.85
2019-03-22T14:20:13.799Z,49.38
2019-03-22T14:22:42.265Z,53.95
2019-03-22T14:25:10.857Z,53.00
2019-03-22T14:27:39.418Z,54.50
2019-03-22T14:30:08.602Z,51.80
2019-03-22T14:32:37.331Z,50.65
2019-03-22T14:35:07.518Z,49.38
2019-03-22T14:37:36.029Z,52.33
2019-03-22T14:40:06.003Z,51.35
2019-03-22T14:42:34.435Z,52.62
2019-03-22T14:45:05.118Z,51.45
2019-03-22T14:47:33.546Z,52.33
2019-03-22T14:50:01.986Z,56.00
2019-03-22T14:52:38.447Z,48.55
2019-03-22T14:55:07.558Z,49.80
2019-03-22T14:57:36.030Z,51.55
2019-03-22T15:00:06.772Z,54.05
2019-03-22T15:02:35.213Z,52.80
2019-03-22T15:05:04.723Z,51.68
2019-03-22T15:07:33.241Z,52.30
2019-03-22T15:10:01.751Z,56.23
2019-03-22T15:12:30.196Z,52.65
2019-03-22T15:15:12.376Z,52.17
2019-03-22T15:17:54.507Z,48.42
2019-03-22T15:20:24.608Z,48.05
2019-03-22T15:23:06.711Z,49.67
2019-03-22T15:25:53.006Z,51.83
2019-03-22T15:28:25.813Z,49.23
2019-03-22T15:30:58.328Z,47.10
2019-03-22T15:33:44.721Z,47.40
2019-03-22T15:36:30.886Z,48.58
2019-03-22T15:39:01.100Z,47.98
2019-03-22T15:41:29.667Z,49.40
2019-03-22T15:43:58.134Z,46.10
2019-03-22T15:46:26.630Z,46.25
2019-03-22T15:48:55.134Z,46.85
2019-03-22T15:51:23.593Z,48.80
2019-03-22T15:53:52.040Z,46.73
2019-03-22T15:56:20.480Z,46.90
2019-03-22T15:58:48.942Z,45.83
2019-03-22T16:01:17.394Z,47.60
2019-03-22T16:03:45.814Z,47.33
2019-03-22T16:06:14.272Z,47.23
2019-03-22T16:08:42.717Z,44.90
2019-03-22T16:11:11.162Z,45.33
2019-03-22T16:13:39.617Z,47.30
2019-03-22T16:16:08.060Z,46.02
2019-03-22T16:18:36.566Z,44.40
2019-03-22T16:21:04.997Z,43.73
2019-03-22T16:23:33.457Z,45.35
2019-03-22T16:26:01.888Z,45.45
2019-03-22T16:28:30.340Z,47.27
2019-03-22T16:30:58.766Z,47.03
2019-03-22T16:33:27.214Z,47.38
2019-03-22T16:35:55.664Z,46.98
2019-03-22T16:38:24.189Z,45.70
2019-03-22T16:40:52.618Z,47.25
2019-03-22T16:43:21.070Z,47.27
2019-03-22T16:45:49.504Z,47.60
2019-03-22T16:48:17.964Z,47.55
2019-03-22T16:50:46.500Z,45.95
2019-03-22T16:53:14.929Z,48.48
2019-03-22T16:55:43.385Z,48.50
2019-03-22T16:58:11.838Z,46.00
2019-03-22T17:00:40.461Z,50.67
2019-03-22T17:03:09.129Z,49.58
2019-03-22T17:05:37.818Z,48.38
2019-03-22T17:08:06.282Z,48.63
2019-03-22T17:10:34.942Z,47.80
2019-03-22T17:13:03.408Z,50.40
2019-03-22T17:15:31.834Z,51.18
2019-03-22T17:18:00.264Z,49.18
2019-03-22T17:20:28.702Z,50.55
2019-03-22T17:22:57.204Z,52.75
2019-03-22T17:25:25.665Z,53.92
2019-03-22T17:27:54.114Z,53.55
2019-03-22T17:30:22.641Z,52.15
2019-03-22T17:32:51.135Z,53.17
2019-03-22T17:35:19.584Z,54.53
2019-03-22T17:37:48.013Z,55.28
2019-03-22T17:40:16.442Z,53.38
2019-03-22T17:42:44.890Z,51.90
2019-03-22T17:45:16.352Z,53.58
2019-03-22T17:47:44.866Z,54.45
2019-03-22T17:50:14.237Z,51.95
2019-03-22T17:52:42.704Z,53.48
2019-03-22T17:55:11.762Z,53.33
2019-03-22T17:57:40.204Z,54.83
2019-03-22T18:00:18.338Z,53.55
2019-03-22T18:02:46.779Z,54.65
2019-03-22T18:05:15.370Z,55.35
2019-03-22T18:07:43.804Z,56.23
2019-03-22T18:10:12.901Z,58.45
2019-03-22T18:12:41.353Z,59.58
2019-03-22T18:15:12.029Z,60.33
2019-03-22T18:17:40.464Z,62.98
2019-03-22T18:20:14.699Z,61.28
2019-03-22T18:22:43.125Z,61.55
2019-03-22T18:25:12.222Z,59.65
2019-03-22T18:27:40.667Z,56.25
2019-03-22T18:30:11.557Z,57.90
2019-03-22T18:32:40.029Z,57.98
2019-03-22T18:35:08.932Z,67.55
2019-03-22T18:37:37.384Z,64.42
2019-03-22T18:40:08.813Z,64.82
2019-03-22T18:42:37.277Z,64.80
2019-03-22T18:45:07.850Z,64.07
2019-03-22T18:47:36.313Z,62.90
2019-03-22T18:50:07.829Z,61.18
2019-03-22T18:52:36.284Z,57.40
2019-03-22T18:55:06.464Z,59.98
2019-03-22T19:00:18.059Z,58.00
2019-03-22T19:02:46.488Z,57.78
2019-03-22T19:05:18.030Z,55.43
2019-03-22T19:07:46.489Z,58.10
2019-03-22T19:10:15.790Z,54.55
2019-03-22T19:12:53.897Z,54.48
2019-03-22T19:15:22.337Z,55.90
2019-03-22T19:17:50.784Z,56.37
2019-03-22T19:20:41.261Z,56.80
2019-03-22T19:23:09.697Z,57.85
2019-03-22T19:25:38.241Z,57.60
2019-03-22T19:28:06.666Z,56.18
2019-03-22T19:30:35.101Z,58.17
2019-03-22T19:33:03.551Z,59.42
2019-03-22T19:35:32.038Z,65.90
2019-03-22T19:38:00.490Z,68.80
2019-03-22T19:40:28.941Z,64.22
2019-03-22T19:42:57.400Z,63.63
2019-03-22T19:45:25.902Z,62.43
2019-03-22T19:47:54.365Z,59.98
2019-03-22T19:50:22.813Z,58.80
2019-03-22T19:52:51.253Z,57.98
2019-03-22T19:55:19.700Z,57.05
2019-03-22T19:57:48.145Z,56.28
2019-03-22T20:00:18.238Z,56.48
2019-03-22T20:02:49.265Z,55.58
2019-03-22T20:05:31.566Z,56.48
2019-03-22T20:08:00.655Z,54.88
2019-03-22T20:10:29.181Z,56.53
2019-03-22T20:12:57.708Z,55.58
2019-03-22T20:15:26.161Z,54.65
2019-03-22T20:17:54.601Z,52.43
2019-03-22T20:20:23.107Z,56.65
2019-03-22T20:22:51.565Z,56.88
2019-03-22T20:25:20.017Z,55.43
2019-03-22T20:27:48.515Z,54.75
2019-03-22T20:30:18.330Z,58.68
2019-03-22T20:32:46.754Z,55.10
2019-03-22T20:35:16.959Z,57.25
2019-03-22T20:37:45.509Z,55.50
2019-03-22T20:40:18.185Z,57.60
2019-03-22T20:42:46.984Z,57.20
2019-03-22T20:45:23.695Z,54.40
2019-03-22T20:47:45.825Z,57.53
2019-03-22T20:50:14.581Z,56.85
2019-03-22T20:52:43.031Z,55.78
2019-03-22T20:55:11.621Z,55.28
2019-03-22T20:57:40.053Z,56.42
2019-03-22T21:00:11.002Z,56.48
2019-03-22T21:02:39.455Z,58.73
2019-03-22T21:05:25.912Z,61.15
2019-03-22T21:07:45.358Z,59.38
2019-03-22T21:10:13.897Z,57.65
2019-03-22T21:12:42.332Z,58.28
2019-03-22T21:15:12.446Z,57.30
2019-03-22T21:17:40.916Z,59.35
2019-03-22T21:20:10.390Z,59.33
2019-03-22T21:22:38.920Z,57.98
2019-03-22T21:25:08.901Z,61.30
2019-03-22T21:27:38.336Z,59.70
2019-03-22T21:30:14.608Z,60.50
2019-03-22T21:32:45.848Z,58.83
2019-03-22T21:35:22.565Z,61.37
2019-03-22T21:37:44.786Z,58.02
2019-03-22T21:40:13.318Z,58.28
2019-03-22T21:42:41.772Z,57.25
2019-03-22T21:45:10.911Z,59.13
2019-03-22T21:47:39.349Z,62.40
2019-03-22T21:50:09.363Z,57.40
2019-03-22T21:52:37.862Z,60.25
2019-03-22T21:55:08.032Z,62.17
2019-03-22T21:57:36.480Z,58.80
2019-03-22T22:00:07.166Z,61.92
2019-03-22T22:02:35.629Z,60.50
2019-03-22T22:05:05.715Z,60.88
2019-03-22T22:07:34.167Z,60.08
2019-03-22T22:10:02.996Z,58.98
2019-03-22T22:12:31.426Z,60.70
2019-03-22T22:14:59.867Z,58.87
2019-03-22T22:17:28.338Z,58.70
2019-03-22T22:19:56.771Z,60.60
2019-03-22T22:22:25.218Z,62.03
2019-03-22T22:24:53.765Z,63.70
2019-03-22T22:27:22.282Z,60.23
2019-03-22T22:29:50.743Z,60.98
2019-03-22T22:32:19.209Z,61.92
2019-03-22T22:34:47.661Z,62.88
2019-03-22T22:37:16.102Z,61.30
2019-03-22T22:39:44.565Z,59.75
2019-03-22T22:42:13.017Z,61.75
2019-03-22T22:44:41.438Z,61.53
2019-03-22T22:47:09.883Z,62.48
2019-03-22T22:49:38.342Z,64.58
2019-03-22T22:52:06.794Z,61.18
2019-03-22T22:54:35.255Z,61.30
2019-03-22T22:57:03.697Z,64.55
2019-03-22T22:59:32.156Z,61.83
2019-03-22T23:02:00.585Z,64.70
2019-03-22T23:04:29.037Z,62.05
2019-03-22T23:06:57.496Z,63.70
2019-03-22T23:09:26.294Z,63.42
2019-03-22T23:11:54.758Z,62.88
2019-03-22T23:14:23.200Z,65.95
2019-03-22T23:16:51.646Z,65.57
2019-03-22T23:19:20.088Z,62.83
2019-03-22T23:21:48.526Z,62.27
2019-03-22T23:24:17.117Z,64.15
2019-03-22T23:26:45.558Z,61.37
2019-03-22T23:29:13.990Z,61.40
2019-03-22T23:31:42.456Z,64.97
2019-03-22T23:34:10.907Z,60.98
2019-03-22T23:36:39.364Z,63.28
2019-03-22T23:39:08.277Z,62.55
2019-03-22T23:41:36.715Z,66.10
2019-03-22T23:44:05.164Z,64.40
2019-03-22T23:46:33.604Z,63.98
2019-03-22T23:49:02.076Z,62.20
2019-03-22T23:51:30.572Z,64.87
2019-03-22T23:53:58.997Z,64.17
2019-03-22T23:56:27.456Z,67.72
2019-03-22T23:58:55.895Z,61.80
